Ventura — ZCDT2 — position and weather

sailwx.info

Track history (hours):
 
Tides and Currents Weather Stations Pressure Air Temp Water Temp Dewpoint Dewpoint Depression Visibility Wind Speed Wind Dir Waves Ship Positions

Ventura

Last reported at 2020-Sep-29 14:31 UTC. Time now 2020-Sep-29 15:03 UTC.
Position N 50°16' W 003°07'.

Length 289 m; draft 8.5 m.

Type: Passenger vessel. MMSI: 310562000.

Date/timePositionNaut miles runAvg speedWind from/ knotsBaromVisibWave heightAir tempDewpointWater temp
2020-Sep-29 14:31N 50°16' W 003°07'5 9.2
2020-Sep-29 14:00N 50°14' W 003°00'10 9.4
2020-Sep-29 12:59N 50°13' W 002°45'8 5.0
2020-Sep-29 11:24N 50°20' W 002°48'1410.1
2020-Sep-29 10:01N 50°25' W 003°09'11 5.3
2020-Sep-29 08:00N 50°30' W 003°24'3 2.7 350 / 41016.510.8 17.013.516.8
2020-Sep-29 06:59N 50°30' W 003°28'0 0.0
2020-Sep-29 04:59N 50°30' W 003°28'0 0.0
2020-Sep-29 04:29N 50°30' W 003°28'0 0.0
2020-Sep-29 00:29N 50°30' W 003°28'0 0.0
2020-Sep-28 21:59N 50°30' W 003°28'0 0.0
2020-Sep-28 19:59N 50°30' W 003°28'0 0.0
2020-Sep-28 19:29N 50°30' W 003°28'0 0.0
2020-Sep-28 18:29N 50°30' W 003°28'3 5.5
2020-Sep-28 18:00N 50°30' W 003°24'3 5.5 230 / 121014.0 5.4 19.015.616.5
2020-Sep-28 17:29N 50°30' W 003°28'0 0.0
2020-Sep-28 16:59N 50°30' W 003°28'0 0.0
2020-Sep-28 15:59N 50°30' W 003°28'3 1.4
2020-Sep-28 14:00N 50°30' W 003°24'31975.6 250 / 171013.7 5.4 19.015.616.4
2020-Sep-28 13:59N 50°30' W 003°28'0 0.0
2020-Sep-28 11:59N 50°30' W 003°28'0 0.0
2020-Sep-28 11:29N 50°30' W 003°28'0 0.0
2020-Sep-28 10:59N 50°30' W 003°28'0 0.0
2020-Sep-28 10:29N 50°30' W 003°28'0 0.0
2020-Sep-28 08:29N 50°30' W 003°28'0 0.0
2020-Sep-28 07:29N 50°30' W 003°28'3 5.5
2020-Sep-28 07:00N 50°30' W 003°24'3 0.7 240 / 61014.610.8 16.012.416.4
2020-Sep-28 02:59N 50°30' W 003°28'0 0.0
2020-Sep-28 01:29N 50°30' W 003°28'0 0.0
2020-Sep-28 00:59N 50°30' W 003°28'0 0.0
2020-Sep-27 21:59N 50°30' W 003°28'0 0.0
2020-Sep-27 19:59N 50°30' W 003°28'3 2.8
2020-Sep-27 19:00N 50°30' W 003°24'32490.3 330 / 61015.710.8 16.0 8.116.6
2020-Sep-27 18:59N 50°30' W 003°28'0 0.0
2020-Sep-27 16:59N 50°30' W 003°28'3 1.4
2020-Sep-27 15:00N 50°30' W 003°24'3 2.8 300 / 201014.910.8 17.0 9.416.8
2020-Sep-27 13:59N 50°30' W 003°28'0 0.0
2020-Sep-27 12:59N 50°30' W 003°28'0 0.0
2020-Sep-27 09:59N 50°30' W 003°28'0 0.0
2020-Sep-27 07:29N 50°30' W 003°28'3 5.5
2020-Sep-27 07:00N 50°30' W 003°24'3 0.7 310 / 141016.010.8 13.0 6.816.8
2020-Sep-27 02:59N 50°30' W 003°28'0 0.0
2020-Sep-26 22:59N 50°30' W 003°28'0 0.0
2020-Sep-26 21:59N 50°30' W 003°28'0 0.0
2020-Sep-26 18:59N 50°30' W 003°28'3 2.8
2020-Sep-26 18:00N 50°30' W 003°24'3 0.9 320 / 121015.810.8 14.0 5.616.8
2020-Sep-26 14:59N 50°30' W 003°28'0 0.0
2020-Sep-26 10:59N 50°30' W 003°28'0 0.0
2020-Sep-26 09:29N 50°30' W 003°28'0 0.0
2020-Sep-26 07:59N 50°30' W 003°28'0 0.0
2020-Sep-26 07:29N 50°30' W 003°28'3 5.6
2020-Sep-26 07:00N 50°30' W 003°24'31990.9 310 / 81014.410.8 16.0 5.616.9
2020-Sep-26 06:59N 50°30' W 003°28'0 0.0
2020-Sep-26 06:29N 50°30' W 003°28'0 0.0
2020-Sep-26 05:29N 50°30' W 003°28'0 0.0
2020-Sep-26 00:29N 50°30' W 003°28'0 0.0
2020-Sep-25 23:29N 50°30' W 003°28'0 0.0
2020-Sep-25 20:29N 50°30' W 003°28'0 0.0
2020-Sep-25 19:29N 50°30' W 003°28'3 1.8
2020-Sep-25 18:00N 50°30' W 003°24'3 0.8 310 / 201013.910.8 12.0 5.616.9
2020-Sep-25 14:29N 50°30' W 003°28'3 5.5
2020-Sep-25 14:00N 50°30' W 003°24'32517.9 310 / 301011.410.8 14.0 5.617.0
2020-Sep-25 13:59N 50°30' W 003°28'0 0.1
2020-Sep-25 13:29N 50°30' W 003°28'0 0.0
2020-Sep-25 08:29N 50°30' W 003°28'3 5.7
2020-Sep-25 08:00N 50°30' W 003°24'3 5.6 330 / 201004.810.8 12.0 5.617.1
2020-Sep-25 07:29N 50°30' W 003°28'0 0.0
2020-Sep-25 06:59N 50°30' W 003°28'0 0.0
2020-Sep-25 05:59N 50°30' W 003°28'0 0.0
2020-Sep-25 03:59N 50°30' W 003°28'0 0.0
2020-Sep-25 00:29N 50°30' W 003°28'3 0.4
2020-Sep-24 18:00N 50°30' W 003°24'3 2.8 200 / 12990.8 5.4 12.0 7.917.3
2020-Sep-24 16:59N 50°30' W 003°28'0 0.0
2020-Sep-24 15:59N 50°30' W 003°28'0 0.0
2020-Sep-24 15:29N 50°30' W 003°28'0 0.0
2020-Sep-24 13:59N 50°30' W 003°28'6 2.2
2020-Sep-24 11:00N 50°24' W 003°24'6 1.8 210 / 20998.6 2.2 12.0 6.817.5
2020-Sep-24 07:29N 50°30' W 003°28'3 5.6
2020-Sep-24 07:00N 50°30' W 003°24'3 5.5 250 / 18996.110.8 12.0 5.617.3
2020-Sep-24 06:29N 50°30' W 003°28'0 0.0
2020-Sep-24 05:29N 50°30' W 003°28'0 0.0
2020-Sep-24 02:59N 50°30' W 003°28'0 0.1
2020-Sep-24 02:29N 50°30' W 003°28'0 0.1
2020-Sep-24 01:59N 50°30' W 003°28'0 0.0
2020-Sep-23 21:29N 50°30' W 003°28'0 0.0
2020-Sep-23 19:59N 50°30' W 003°28'0 0.0
2020-Sep-23 19:23N 50°30' W 003°28'0 0.0
2020-Sep-23 18:59N 50°30' W 003°28'3 2.8
2020-Sep-23 18:00N 50°30' W 003°24'3 0.9 250 / 211001.110.8 14.0 8.017.6
2020-Sep-23 14:59N 50°30' W 003°28'0 0.0
2020-Sep-23 13:59N 50°30' W 003°28'0 0.0
2020-Sep-23 11:59N 50°30' W 003°28'0 0.0
2020-Sep-23 10:59N 50°30' W 003°28'0 0.0
2020-Sep-23 10:29N 50°30' W 003°28'3 0.8
2020-Sep-23 07:00N 50°30' W 003°24'3 0.6 230 / 101001.2 5.4 19.013.817.6
2020-Sep-23 01:59N 50°30' W 003°28'0 0.0
2020-Sep-22 22:59N 50°30' W 003°28'3 0.6
2020-Sep-22 18:00N 50°30' W 003°24'3 1.9 230 / 71006.6 5.4 19.013.817.6
2020-Sep-22 16:29N 50°30' W 003°28'0 0.0
2020-Sep-22 15:59N 50°30' W 003°28'0 0.0
2020-Sep-22 15:29N 50°30' W 003°28'0 0.0
2020-Sep-22 11:59N 50°30' W 003°28'0 0.0
2020-Sep-22 10:59N 50°30' W 003°28'0 0.0
2020-Sep-22 09:59N 50°30' W 003°28'0 0.0
2020-Sep-22 09:29N 50°30' W 003°28'0 0.0
2020-Sep-22 07:59N 50°30' W 003°28'0 0.0
2020-Sep-22 07:29N 50°30' W 003°28'3 5.7
2020-Sep-22 07:00N 50°30' W 003°24'32567.3 230 / 71012.1 5.4 18.012.717.6
2020-Sep-22 06:59N 50°30' W 003°28'0 0.0
2020-Sep-22 04:59N 50°30' W 003°28'0 0.0
2020-Sep-22 03:59N 50°30' W 003°28'0 0.0
2020-Sep-22 03:29N 50°30' W 003°28'0 0.0
2020-Sep-21 22:59N 50°30' W 003°28'0 0.0
2020-Sep-21 21:59N 50°30' W 003°28'0 0.0
2020-Sep-21 21:29N 50°30' W 003°28'0 0.0
2020-Sep-21 20:29N 50°30' W 003°28'3 1.1
2020-Sep-21 18:00N 50°30' W 003°24'3 5.7 190 / 41016.010.8 20.010.918.0
2020-Sep-21 17:29N 50°30' W 003°28'0 0.0
2020-Sep-21 15:59N 50°30' W 003°28'3 1.4
2020-Sep-21 14:00N 50°30' W 003°24'32066.4 190 / 61016.7 25.017.017.6
2020-Sep-21 13:59N 50°30' W 003°28'0 0.0
2020-Sep-21 10:29N 50°30' W 003°28'0 0.0
2020-Sep-21 08:29N 50°30' W 003°28'0 0.0
2020-Sep-21 07:29N 50°30' W 003°28'3 5.7
2020-Sep-21 07:00N 50°30' W 003°24'3 1.9 350 / 51017.8 5.4 19.013.817.5
2020-Sep-21 05:29N 50°30' W 003°29'0 0.0
2020-Sep-21 01:29N 50°30' W 003°28'0 0.0
2020-Sep-21 00:29N 50°30' W 003°28'0 0.0
2020-Sep-20 23:29N 50°30' W 003°28'0 0.0
2020-Sep-20 19:29N 50°30' W 003°28'0 0.0
2020-Sep-20 18:59N 50°30' W 003°28'3 2.9
2020-Sep-20 18:00N 50°30' W 003°24'32560.8 360 / 121017.6 5.4 21.014.217.6
2020-Sep-20 17:59N 50°30' W 003°28'0 0.0
2020-Sep-20 17:29N 50°30' W 003°28'0 0.0
2020-Sep-20 16:59N 50°30' W 003°29'0 0.0
2020-Sep-20 16:29N 50°30' W 003°28'0 0.0
2020-Sep-20 15:59N 50°30' W 003°28'0 0.0
2020-Sep-20 14:29N 50°30' W 003°28'0 0.0
2020-Sep-20 12:29N 50°30' W 003°28'0 0.0
2020-Sep-20 11:59N 50°30' W 003°28'0 0.0
2020-Sep-20 11:29N 50°30' W 003°28'0 0.0
2020-Sep-20 10:29N 50°30' W 003°28'0 0.0
2020-Sep-20 08:29N 50°30' W 003°28'0 0.0
2020-Sep-20 06:59N 50°30' W 003°28'3 2.8
2020-Sep-20 06:00N 50°30' W 003°24'32071.1 350 / 201017.0 5.4 15.013.217.3
2020-Sep-20 05:59N 50°30' W 003°29'0 0.0
2020-Sep-19 23:59N 50°30' W 003°29'0 0.0
2020-Sep-19 20:29N 50°30' W 003°29'0 0.0
2020-Sep-19 18:59N 50°30' W 003°29'3 2.9
2020-Sep-19 18:00N 50°30' W 003°24'3 5.8 070 / 111014.3 5.4 20.014.917.4
2020-Sep-19 17:29N 50°30' W 003°29'0 0.0
2020-Sep-19 16:29N 50°30' W 003°29'  
Track history (hours):
 
Tides and Currents Weather Stations Pressure Air Temp Water Temp Dewpoint Dewpoint Depression Visibility Wind Speed Wind Dir Waves Ship Positions

Ventura

Last reported at 2020-Sep-29 14:31 UTC. Time now 2020-Sep-29 15:03 UTC.
Position N 50°16' W 003°07'.

Length 289 m; draft 8.5 m.

Type: Passenger vessel. MMSI: 310562000.

Date/timePositionNaut miles runAvg speedWind from/ knotsBaromVisibWave heightAir tempDewpointWater temp
2020-Sep-29 14:31N 50°16' W 003°07'5 9.2
2020-Sep-29 14:00N 50°14' W 003°00'10 9.4
2020-Sep-29 12:59N 50°13' W 002°45'8 5.0
2020-Sep-29 11:24N 50°20' W 002°48'1410.1
2020-Sep-29 10:01N 50°25' W 003°09'11 5.3
2020-Sep-29 08:00N 50°30' W 003°24'3 2.7 350 / 41016.510.8 17.013.516.8
2020-Sep-29 06:59N 50°30' W 003°28'0 0.0
2020-Sep-29 04:59N 50°30' W 003°28'0 0.0
2020-Sep-29 04:29N 50°30' W 003°28'0 0.0
2020-Sep-29 00:29N 50°30' W 003°28'0 0.0
2020-Sep-28 21:59N 50°30' W 003°28'0 0.0
2020-Sep-28 19:59N 50°30' W 003°28'0 0.0
2020-Sep-28 19:29N 50°30' W 003°28'0 0.0
2020-Sep-28 18:29N 50°30' W 003°28'3 5.5
2020-Sep-28 18:00N 50°30' W 003°24'3 5.5 230 / 121014.0 5.4 19.015.616.5
2020-Sep-28 17:29N 50°30' W 003°28'0 0.0
2020-Sep-28 16:59N 50°30' W 003°28'0 0.0
2020-Sep-28 15:59N 50°30' W 003°28'3 1.4
2020-Sep-28 14:00N 50°30' W 003°24'31975.6 250 / 171013.7 5.4 19.015.616.4
2020-Sep-28 13:59N 50°30' W 003°28'0 0.0
2020-Sep-28 11:59N 50°30' W 003°28'0 0.0
2020-Sep-28 11:29N 50°30' W 003°28'0 0.0
2020-Sep-28 10:59N 50°30' W 003°28'0 0.0
2020-Sep-28 10:29N 50°30' W 003°28'0 0.0
2020-Sep-28 08:29N 50°30' W 003°28'0 0.0
2020-Sep-28 07:29N 50°30' W 003°28'3 5.5
2020-Sep-28 07:00N 50°30' W 003°24'3 0.7 240 / 61014.610.8 16.012.416.4
2020-Sep-28 02:59N 50°30' W 003°28'0 0.0
2020-Sep-28 01:29N 50°30' W 003°28'0 0.0
2020-Sep-28 00:59N 50°30' W 003°28'0 0.0
2020-Sep-27 21:59N 50°30' W 003°28'0 0.0
2020-Sep-27 19:59N 50°30' W 003°28'3 2.8
2020-Sep-27 19:00N 50°30' W 003°24'32490.3 330 / 61015.710.8 16.0 8.116.6
2020-Sep-27 18:59N 50°30' W 003°28'0 0.0
2020-Sep-27 16:59N 50°30' W 003°28'3 1.4
2020-Sep-27 15:00N 50°30' W 003°24'3 2.8 300 / 201014.910.8 17.0 9.416.8
2020-Sep-27 13:59N 50°30' W 003°28'0 0.0
2020-Sep-27 12:59N 50°30' W 003°28'0 0.0
2020-Sep-27 09:59N 50°30' W 003°28'0 0.0
2020-Sep-27 07:29N 50°30' W 003°28'3 5.5
2020-Sep-27 07:00N 50°30' W 003°24'3 0.7 310 / 141016.010.8 13.0 6.816.8
2020-Sep-27 02:59N 50°30' W 003°28'0 0.0
2020-Sep-26 22:59N 50°30' W 003°28'0 0.0
2020-Sep-26 21:59N 50°30' W 003°28'0 0.0
2020-Sep-26 18:59N 50°30' W 003°28'3 2.8
2020-Sep-26 18:00N 50°30' W 003°24'3 0.9 320 / 121015.810.8 14.0 5.616.8
2020-Sep-26 14:59N 50°30' W 003°28'0 0.0
2020-Sep-26 10:59N 50°30' W 003°28'0 0.0
2020-Sep-26 09:29N 50°30' W 003°28'0 0.0
2020-Sep-26 07:59N 50°30' W 003°28'0 0.0
2020-Sep-26 07:29N 50°30' W 003°28'3 5.6
2020-Sep-26 07:00N 50°30' W 003°24'31990.9 310 / 81014.410.8 16.0 5.616.9
2020-Sep-26 06:59N 50°30' W 003°28'0 0.0
2020-Sep-26 06:29N 50°30' W 003°28'0 0.0
2020-Sep-26 05:29N 50°30' W 003°28'0 0.0
2020-Sep-26 00:29N 50°30' W 003°28'0 0.0
2020-Sep-25 23:29N 50°30' W 003°28'0 0.0
2020-Sep-25 20:29N 50°30' W 003°28'0 0.0
2020-Sep-25 19:29N 50°30' W 003°28'3 1.8
2020-Sep-25 18:00N 50°30' W 003°24'3 0.8 310 / 201013.910.8 12.0 5.616.9
2020-Sep-25 14:29N 50°30' W 003°28'3 5.5
2020-Sep-25 14:00N 50°30' W 003°24'32517.9 310 / 301011.410.8 14.0 5.617.0
2020-Sep-25 13:59N 50°30' W 003°28'0 0.1
2020-Sep-25 13:29N 50°30' W 003°28'0 0.0
2020-Sep-25 08:29N 50°30' W 003°28'3 5.7
2020-Sep-25 08:00N 50°30' W 003°24'3 5.6 330 / 201004.810.8 12.0 5.617.1
2020-Sep-25 07:29N 50°30' W 003°28'0 0.0
2020-Sep-25 06:59N 50°30' W 003°28'0 0.0
2020-Sep-25 05:59N 50°30' W 003°28'0 0.0
2020-Sep-25 03:59N 50°30' W 003°28'0 0.0
2020-Sep-25 00:29N 50°30' W 003°28'3 0.4
2020-Sep-24 18:00N 50°30' W 003°24'3 2.8 200 / 12990.8 5.4 12.0 7.917.3
2020-Sep-24 16:59N 50°30' W 003°28'0 0.0
2020-Sep-24 15:59N 50°30' W 003°28'0 0.0
2020-Sep-24 15:29N 50°30' W 003°28'0 0.0
2020-Sep-24 13:59N 50°30' W 003°28'6 2.2
2020-Sep-24 11:00N 50°24' W 003°24'6 1.8 210 / 20998.6 2.2 12.0 6.817.5
2020-Sep-24 07:29N 50°30' W 003°28'3 5.6
2020-Sep-24 07:00N 50°30' W 003°24'3 5.5 250 / 18996.110.8 12.0 5.617.3
2020-Sep-24 06:29N 50°30' W 003°28'0 0.0
2020-Sep-24 05:29N 50°30' W 003°28'0 0.0
2020-Sep-24 02:59N 50°30' W 003°28'0 0.1
2020-Sep-24 02:29N 50°30' W 003°28'0 0.1
2020-Sep-24 01:59N 50°30' W 003°28'0 0.0
2020-Sep-23 21:29N 50°30' W 003°28'0 0.0
2020-Sep-23 19:59N 50°30' W 003°28'0 0.0
2020-Sep-23 19:23N 50°30' W 003°28'0 0.0
2020-Sep-23 18:59N 50°30' W 003°28'3 2.8
2020-Sep-23 18:00N 50°30' W 003°24'3 0.9 250 / 211001.110.8 14.0 8.017.6
2020-Sep-23 14:59N 50°30' W 003°28'0 0.0
2020-Sep-23 13:59N 50°30' W 003°28'0 0.0
2020-Sep-23 11:59N 50°30' W 003°28'0 0.0
2020-Sep-23 10:59N 50°30' W 003°28'0 0.0
2020-Sep-23 10:29N 50°30' W 003°28'3 0.8
2020-Sep-23 07:00N 50°30' W 003°24'3 0.6 230 / 101001.2 5.4 19.013.817.6
2020-Sep-23 01:59N 50°30' W 003°28'0 0.0
2020-Sep-22 22:59N 50°30' W 003°28'3 0.6
2020-Sep-22 18:00N 50°30' W 003°24'3 1.9 230 / 71006.6 5.4 19.013.817.6
2020-Sep-22 16:29N 50°30' W 003°28'0 0.0
2020-Sep-22 15:59N 50°30' W 003°28'0 0.0
2020-Sep-22 15:29N 50°30' W 003°28'0 0.0
2020-Sep-22 11:59N 50°30' W 003°28'0 0.0
2020-Sep-22 10:59N 50°30' W 003°28'0 0.0
2020-Sep-22 09:59N 50°30' W 003°28'0 0.0
2020-Sep-22 09:29N 50°30' W 003°28'0 0.0
2020-Sep-22 07:59N 50°30' W 003°28'0 0.0
2020-Sep-22 07:29N 50°30' W 003°28'3 5.7
2020-Sep-22 07:00N 50°30' W 003°24'32567.3 230 / 71012.1 5.4 18.012.717.6
2020-Sep-22 06:59N 50°30' W 003°28'0 0.0
2020-Sep-22 04:59N 50°30' W 003°28'0 0.0
2020-Sep-22 03:59N 50°30' W 003°28'0 0.0
2020-Sep-22 03:29N 50°30' W 003°28'0 0.0
2020-Sep-21 22:59N 50°30' W 003°28'0 0.0
2020-Sep-21 21:59N 50°30' W 003°28'0 0.0
2020-Sep-21 21:29N 50°30' W 003°28'0 0.0
2020-Sep-21 20:29N 50°30' W 003°28'3 1.1
2020-Sep-21 18:00N 50°30' W 003°24'3 5.7 190 / 41016.010.8 20.010.918.0
2020-Sep-21 17:29N 50°30' W 003°28'0 0.0
2020-Sep-21 15:59N 50°30' W 003°28'3 1.4
2020-Sep-21 14:00N 50°30' W 003°24'32066.4 190 / 61016.7 25.017.017.6
2020-Sep-21 13:59N 50°30' W 003°28'0 0.0
2020-Sep-21 10:29N 50°30' W 003°28'0 0.0
2020-Sep-21 08:29N 50°30' W 003°28'0 0.0
2020-Sep-21 07:29N 50°30' W 003°28'3 5.7
2020-Sep-21 07:00N 50°30' W 003°24'3 1.9 350 / 51017.8 5.4 19.013.817.5
2020-Sep-21 05:29N 50°30' W 003°29'0 0.0
2020-Sep-21 01:29N 50°30' W 003°28'0 0.0
2020-Sep-21 00:29N 50°30' W 003°28'0 0.0
2020-Sep-20 23:29N 50°30' W 003°28'0 0.0
2020-Sep-20 19:29N 50°30' W 003°28'0 0.0
2020-Sep-20 18:59N 50°30' W 003°28'3 2.9
2020-Sep-20 18:00N 50°30' W 003°24'32560.8 360 / 121017.6 5.4 21.014.217.6
2020-Sep-20 17:59N 50°30' W 003°28'0 0.0
2020-Sep-20 17:29N 50°30' W 003°28'0 0.0
2020-Sep-20 16:59N 50°30' W 003°29'0 0.0
2020-Sep-20 16:29N 50°30' W 003°28'0 0.0
2020-Sep-20 15:59N 50°30' W 003°28'0 0.0
2020-Sep-20 14:29N 50°30' W 003°28'0 0.0
2020-Sep-20 12:29N 50°30' W 003°28'0 0.0
2020-Sep-20 11:59N 50°30' W 003°28'0 0.0
2020-Sep-20 11:29N 50°30' W 003°28'0 0.0
2020-Sep-20 10:29N 50°30' W 003°28'0 0.0
2020-Sep-20 08:29N 50°30' W 003°28'0 0.0
2020-Sep-20 06:59N 50°30' W 003°28'3 2.8
2020-Sep-20 06:00N 50°30' W 003°24'32071.1 350 / 201017.0 5.4 15.013.217.3
2020-Sep-20 05:59N 50°30' W 003°29'0 0.0
2020-Sep-19 23:59N 50°30' W 003°29'0 0.0
2020-Sep-19 20:29N 50°30' W 003°29'0 0.0
2020-Sep-19 18:59N 50°30' W 003°29'3 2.9
2020-Sep-19 18:00N 50°30' W 003°24'3 5.8 070 / 111014.3 5.4 20.014.917.4
2020-Sep-19 17:29N 50°30' W 003°29'0 0.0
2020-Sep-19 16:29N 50°30' W 003°29'  

Dump ship's entire track history